createdAt,value
2023-02-19T00:00:25.887Z,71.42
2023-02-19T00:02:57.749Z,71.65
2023-02-19T00:05:28.355Z,72.01
2023-02-19T00:07:58.969Z,72.88
2023-02-19T00:10:31.245Z,70.96
2023-02-19T00:13:01.815Z,69.83
2023-02-19T00:15:34.774Z,68.89
2023-02-19T00:18:05.314Z,68.62
2023-02-19T00:20:35.784Z,68.07
2023-02-19T00:23:06.333Z,66.14
2023-02-19T00:25:41.285Z,65.53
2023-02-19T00:28:11.813Z,65.99
2023-02-19T00:30:42.398Z,66.48
2023-02-19T00:33:13.148Z,65.34
2023-02-19T00:35:43.711Z,64.96
2023-02-19T00:38:14.276Z,64.42
2023-02-19T00:40:46.784Z,63.37
2023-02-19T00:43:17.411Z,62.82
2023-02-19T00:45:47.964Z,63.89
2023-02-19T00:48:18.640Z,64.55
2023-02-19T00:50:49.063Z,65.32
2023-02-19T00:53:19.560Z,65.30
2023-02-19T00:55:51.685Z,66.89
2023-02-19T00:58:22.219Z,68.51
2023-02-19T01:00:52.714Z,68.62
2023-02-19T01:03:24.287Z,67.47
2023-02-19T01:05:55.395Z,66.77
2023-02-19T01:08:26.764Z,67.71
2023-02-19T01:10:58.869Z,66.94
2023-02-19T01:13:29.733Z,66.98
2023-02-19T01:16:07.012Z,67.49
2023-02-19T01:18:38.319Z,66.04
2023-02-19T01:21:10.338Z,65.46
2023-02-19T01:23:41.403Z,66.08
2023-02-19T01:26:17.465Z,65.99
2023-02-19T01:28:49.142Z,65.40
2023-02-19T01:31:22.079Z,65.62
2023-02-19T01:33:54.130Z,64.32
2023-02-19T01:36:24.917Z,64.15
2023-02-19T01:38:55.460Z,64.24
2023-02-19T01:41:28.333Z,64.24
2023-02-19T01:44:01.361Z,63.88
2023-02-19T01:46:33.530Z,63.94
2023-02-19T01:49:08.193Z,64.87
2023-02-19T01:51:42.107Z,64.18
2023-02-19T01:54:15.572Z,64.21
2023-02-19T01:56:50.632Z,63.97
2023-02-19T01:59:21.999Z,64.00
2023-02-19T02:01:53.177Z,64.71
2023-02-19T02:04:23.885Z,65.02
2023-02-19T02:06:56.809Z,65.73
2023-02-19T02:09:48.701Z,66.12
2023-02-19T02:12:20.758Z,66.09
2023-02-19T02:14:54.415Z,66.45
2023-02-19T02:17:32.617Z,66.61
2023-02-19T02:20:21.805Z,67.61
2023-02-19T02:23:01.599Z,67.38
2023-02-19T02:26:00.661Z,67.60
2023-02-19T02:29:12.991Z,68.71
2023-02-19T02:31:47.631Z,68.51
2023-02-19T02:34:21.822Z,69.15
2023-02-19T02:36:56.961Z,69.28
2023-02-19T02:39:29.958Z,70.00
2023-02-19T02:42:18.698Z,70.35
2023-02-19T02:45:09.214Z,70.24
2023-02-19T02:47:46.168Z,71.23
2023-02-19T02:50:21.822Z,71.73
2023-02-19T02:53:12.147Z,70.97
2023-02-19T02:55:50.028Z,71.33
2023-02-19T02:58:23.103Z,70.82
2023-02-19T03:01:16.174Z,71.17
2023-02-19T03:03:51.628Z,71.15
2023-02-19T03:06:24.848Z,71.33
2023-02-19T03:08:59.388Z,70.76
2023-02-19T03:11:48.604Z,69.93
2023-02-19T03:14:39.738Z,69.27
2023-02-19T03:17:33.285Z,69.69
2023-02-19T03:20:13.137Z,70.31
2023-02-19T03:22:47.405Z,70.76
2023-02-19T03:25:39.249Z,71.51
2023-02-19T03:28:13.096Z,71.09
2023-02-19T03:30:47.621Z,71.92
2023-02-19T03:33:21.422Z,72.82
2023-02-19T03:35:59.633Z,73.11
2023-02-19T03:38:34.781Z,72.62
2023-02-19T03:41:11.927Z,73.11
2023-02-19T03:43:48.132Z,73.65
2023-02-19T03:46:25.537Z,73.07
2023-02-19T03:48:59.825Z,72.46
2023-02-19T03:51:40.448Z,71.68
2023-02-19T03:54:18.057Z,72.44
2023-02-19T03:56:53.373Z,73.25
2023-02-19T03:59:29.914Z,73.44
2023-02-19T04:02:04.116Z,73.58
2023-02-19T04:04:38.571Z,74.13
2023-02-19T04:07:10.991Z,74.12
2023-02-19T04:09:46.028Z,74.50
2023-02-19T04:12:17.685Z,74.60
2023-02-19T04:14:54.787Z,74.53
2023-02-19T04:17:32.012Z,73.40
2023-02-19T04:20:06.354Z,73.13
2023-02-19T04:22:39.992Z,74.02
2023-02-19T04:25:11.451Z,74.26
2023-02-19T04:27:42.265Z,74.10
2023-02-19T04:30:19.158Z,74.74
2023-02-19T04:32:49.628Z,73.86
2023-02-19T04:35:20.322Z,73.52
2023-02-19T04:37:52.467Z,74.16
2023-02-19T04:40:23.017Z,74.25
2023-02-19T04:42:53.505Z,72.89
2023-02-19T04:45:24.005Z,73.12
2023-02-19T04:47:54.601Z,73.35
2023-02-19T04:50:25.332Z,72.98
2023-02-19T04:52:57.566Z,72.75
2023-02-19T04:55:28.195Z,73.57
2023-02-19T04:57:58.817Z,73.90
2023-02-19T05:00:29.314Z,74.17
2023-02-19T05:02:59.936Z,74.75
2023-02-19T05:05:30.820Z,74.73
2023-02-19T05:08:02.975Z,74.44
2023-02-19T05:10:34.514Z,74.87
2023-02-19T05:13:05.248Z,74.51
2023-02-19T05:15:35.747Z,74.97
2023-02-19T05:18:06.630Z,74.70
2023-02-19T05:20:37.241Z,75.03
2023-02-19T05:23:09.687Z,75.09
2023-02-19T05:25:40.484Z,75.50
2023-02-19T05:28:20.222Z,75.61
2023-02-19T05:30:53.052Z,76.68
2023-02-19T05:33:24.530Z,77.03
2023-02-19T05:35:56.127Z,76.35
2023-02-19T05:38:28.562Z,76.50
2023-02-19T05:40:59.044Z,76.72
2023-02-19T05:43:29.575Z,76.24
2023-02-19T05:46:01.988Z,76.60
2023-02-19T05:48:32.560Z,76.92
2023-02-19T05:51:05.826Z,76.65
2023-02-19T05:53:38.566Z,76.60
2023-02-19T05:56:26.513Z,76.91
2023-02-19T05:58:57.884Z,77.63
2023-02-19T06:01:30.486Z,77.74
2023-02-19T06:04:01.218Z,77.92
2023-02-19T06:06:31.728Z,77.68
2023-02-19T06:09:03.812Z,77.60
2023-02-19T06:11:34.234Z,78.35
2023-02-19T06:14:04.681Z,78.45
2023-02-19T06:16:35.316Z,78.29
2023-02-19T06:19:06.928Z,78.56
2023-02-19T06:21:37.503Z,78.32
2023-02-19T06:24:11.089Z,78.19
2023-02-19T06:26:41.880Z,78.72
2023-02-19T06:29:12.433Z,77.95
2023-02-19T06:31:43.202Z,78.57
2023-02-19T06:34:13.814Z,79.05
2023-02-19T06:36:44.349Z,79.96
2023-02-19T06:39:16.480Z,80.12
2023-02-19T06:41:47.081Z,80.31
2023-02-19T06:44:17.806Z,80.85
2023-02-19T06:46:48.363Z,80.88
2023-02-19T06:49:18.911Z,80.45
2023-02-19T06:51:49.588Z,80.43
2023-02-19T06:54:21.682Z,80.20
2023-02-19T06:56:52.280Z,80.70
2023-02-19T06:59:22.772Z,80.45
2023-02-19T07:01:53.266Z,80.59
2023-02-19T07:04:23.770Z,80.78
2023-02-19T07:06:54.273Z,81.07
2023-02-19T07:09:26.821Z,81.20
2023-02-19T07:11:57.350Z,81.60
2023-02-19T07:14:27.896Z,81.76
2023-02-19T07:16:58.532Z,82.06
2023-02-19T07:19:28.940Z,82.15
2023-02-19T07:21:59.640Z,82.26
2023-02-19T07:24:31.714Z,82.86
2023-02-19T07:27:02.151Z,83.19
2023-02-19T07:29:32.672Z,82.90
2023-02-19T07:32:03.191Z,82.86
2023-02-19T07:34:33.737Z,83.02
2023-02-19T07:37:04.230Z,83.05
2023-02-19T07:39:36.378Z,83.15
2023-02-19T07:42:09.755Z,83.37
2023-02-19T07:44:40.263Z,83.85
2023-02-19T07:47:10.662Z,83.90
2023-02-19T07:49:41.104Z,83.85
2023-02-19T07:52:11.577Z,84.15
2023-02-19T07:54:43.645Z,84.32
2023-02-19T07:57:14.123Z,84.48
2023-02-19T07:59:44.576Z,84.76
2023-02-19T08:02:36.348Z,84.39
2023-02-19T08:05:11.458Z,84.37
2023-02-19T08:07:44.839Z,84.41
2023-02-19T08:10:33.551Z,84.61
2023-02-19T08:13:24.611Z,84.74
2023-02-19T08:16:07.548Z,85.14
2023-02-19T08:18:44.436Z,85.14
2023-02-19T08:21:15.354Z,86.07
2023-02-19T08:23:46.486Z,85.83
2023-02-19T08:26:24.872Z,85.64
2023-02-19T08:28:55.415Z,85.89
2023-02-19T08:31:26.522Z,86.21
2023-02-19T08:33:57.793Z,86.11
2023-02-19T08:36:31.256Z,86.55
2023-02-19T08:39:05.055Z,86.82
2023-02-19T08:41:38.298Z,86.79
2023-02-19T08:44:10.728Z,87.25
2023-02-19T08:46:43.839Z,87.35
2023-02-19T08:49:14.654Z,87.39
2023-02-19T08:51:48.266Z,87.07
2023-02-19T08:54:18.826Z,87.18
2023-02-19T08:56:53.799Z,87.03
2023-02-19T08:59:24.701Z,87.28
2023-02-19T09:01:59.920Z,87.34
2023-02-19T09:04:30.596Z,87.90
2023-02-19T09:07:01.266Z,87.66
2023-02-19T09:09:43.138Z,87.60
2023-02-19T09:12:16.036Z,87.70
2023-02-19T09:14:46.769Z,87.86
2023-02-19T09:17:17.491Z,87.64
2023-02-19T09:19:51.738Z,87.70
2023-02-19T09:22:25.745Z,87.67
2023-02-19T09:24:56.248Z,88.11
2023-02-19T09:27:35.431Z,88.00
2023-02-19T09:30:06.350Z,88.14
2023-02-19T09:32:37.314Z,87.93
2023-02-19T09:35:08.904Z,88.09
2023-02-19T09:37:41.533Z,88.16
2023-02-19T09:40:17.005Z,88.07
2023-02-19T09:42:52.780Z,88.06
2023-02-19T09:45:26.595Z,88.07
2023-02-19T09:47:59.132Z,88.47
2023-02-19T09:50:37.638Z,88.47
2023-02-19T09:53:19.449Z,88.87
2023-02-19T09:55:50.203Z,88.97
2023-02-19T09:58:28.458Z,88.69
2023-02-19T10:01:01.983Z,88.50
2023-02-19T10:03:35.832Z,88.70
2023-02-19T10:06:16.254Z,88.60
2023-02-19T10:08:54.912Z,88.67
2023-02-19T10:11:29.181Z,88.54
2023-02-19T10:14:11.640Z,88.59
2023-02-19T10:16:46.139Z,88.75
2023-02-19T10:19:17.538Z,88.82
2023-02-19T10:21:49.475Z,88.53
2023-02-19T10:24:26.971Z,88.42
2023-02-19T10:27:01.064Z,88.55
2023-02-19T10:29:33.444Z,88.26
2023-02-19T10:32:20.206Z,87.87
2023-02-19T10:34:51.004Z,87.95
2023-02-19T10:37:22.922Z,87.80
2023-02-19T10:39:56.121Z,88.02
2023-02-19T10:42:30.403Z,87.53
2023-02-19T10:45:05.031Z,87.91
2023-02-19T10:47:36.779Z,87.54
2023-02-19T10:50:07.596Z,87.71
2023-02-19T10:52:38.732Z,87.56
2023-02-19T10:55:30.907Z,87.62
2023-02-19T10:58:20.675Z,87.45
2023-02-19T11:01:11.400Z,87.67
2023-02-19T11:03:42.939Z,87.60
2023-02-19T11:06:17.659Z,87.60
2023-02-19T11:08:58.931Z,87.87
2023-02-19T11:11:35.781Z,87.30
2023-02-19T11:14:08.933Z,87.17
2023-02-19T11:16:46.806Z,86.64
2023-02-19T11:19:34.158Z,86.75
2023-02-19T11:22:05.698Z,87.01
2023-02-19T11:24:38.266Z,87.77
2023-02-19T11:27:28.192Z,87.14
2023-02-19T11:30:38.860Z,86.54
2023-02-19T11:33:35.354Z,86.71
2023-02-19T11:36:31.152Z,86.25
2023-02-19T11:39:07.017Z,86.55
2023-02-19T11:42:37.532Z,86.37
2023-02-19T11:45:39.250Z,86.77
2023-02-19T11:48:30.516Z,86.61
2023-02-19T11:51:52.411Z,86.38
2023-02-19T11:54:43.474Z,86.19
2023-02-19T11:57:28.218Z,86.60
2023-02-19T12:00:04.119Z,86.62
2023-02-19T12:02:50.775Z,86.73
2023-02-19T12:05:30.544Z,86.42
2023-02-19T12:08:33.753Z,85.74
2023-02-19T12:11:24.696Z,86.12
2023-02-19T12:14:23.536Z,86.26
2023-02-19T12:17:04.451Z,86.21
2023-02-19T12:19:47.810Z,86.90
2023-02-19T12:22:29.723Z,86.97
2023-02-19T12:25:41.098Z,86.97
2023-02-19T12:28:40.411Z,87.08
2023-02-19T12:31:36.041Z,86.80
2023-02-19T12:34:39.398Z,86.71
2023-02-19T12:37:29.600Z,87.16
2023-02-19T12:40:18.936Z,86.91
2023-02-19T12:43:04.068Z,87.46
2023-02-19T12:45:39.963Z,87.79
2023-02-19T12:48:20.717Z,88.48
2023-02-19T12:50:57.090Z,88.57
2023-02-19T12:53:45.350Z,88.43
2023-02-19T12:56:21.689Z,88.61
2023-02-19T12:59:03.838Z,88.87
2023-02-19T13:01:42.564Z,89.06
2023-02-19T13:04:28.028Z,89.21
2023-02-19T13:07:07.727Z,89.26
2023-02-19T13:09:50.327Z,89.30
2023-02-19T13:12:28.519Z,89.78
2023-02-19T13:15:03.647Z,89.58
2023-02-19T13:17:41.809Z,89.58
2023-02-19T13:20:23.762Z,89.77
2023-02-19T13:23:20.099Z,89.88
2023-02-19T13:26:07.982Z,89.96
2023-02-19T13:28:54.694Z,90.09
2023-02-19T13:31:46.567Z,90.59
2023-02-19T13:34:41.173Z,90.40
2023-02-19T13:37:13.562Z,90.54
2023-02-19T13:39:51.165Z,90.44
2023-02-19T13:42:29.826Z,90.61
2023-02-19T13:45:05.063Z,90.50
2023-02-19T13:48:04.478Z,90.88
2023-02-19T13:50:38.573Z,90.81
2023-02-19T13:53:50.457Z,91.06
2023-02-19T13:56:41.712Z,90.92
2023-02-19T13:59:39.600Z,90.86
2023-02-19T14:02:30.076Z,91.13
2023-02-19T14:05:55.376Z,91.04
2023-02-19T14:09:10.987Z,91.07
2023-02-19T14:12:20.827Z,91.14
2023-02-19T14:15:25.775Z,91.05
2023-02-19T14:18:26.758Z,90.78
2023-02-19T14:21:23.589Z,90.70
2023-02-19T14:23:57.606Z,90.77
2023-02-19T14:27:14.545Z,90.90
2023-02-19T14:29:48.328Z,91.29
2023-02-19T14:32:23.193Z,91.25
2023-02-19T14:34:53.866Z,91.63
2023-02-19T14:37:26.322Z,91.67
2023-02-19T14:40:10.184Z,91.67
2023-02-19T14:42:45.008Z,91.92
2023-02-19T14:45:23.774Z,92.09
2023-02-19T14:48:15.365Z,91.46
2023-02-19T14:50:51.196Z,91.27
2023-02-19T14:53:41.358Z,90.98
2023-02-19T14:56:30.699Z,90.88
2023-02-19T14:59:28.746Z,91.04
2023-02-19T15:02:04.706Z,91.23
2023-02-19T15:04:40.949Z,91.47
2023-02-19T15:07:16.369Z,91.22
2023-02-19T15:09:52.080Z,91.50
2023-02-19T15:12:32.977Z,91.34
2023-02-19T15:15:07.715Z,91.27
2023-02-19T15:17:43.634Z,91.21
2023-02-19T15:20:21.240Z,91.18
2023-02-19T15:22:52.400Z,91.29
2023-02-19T15:25:25.410Z,91.24
2023-02-19T15:27:56.888Z,91.44
2023-02-19T15:30:30.263Z,91.71
2023-02-19T15:33:03.624Z,91.95
2023-02-19T15:35:34.557Z,92.38
2023-02-19T15:38:06.354Z,92.23
2023-02-19T15:40:37.580Z,92.14
2023-02-19T15:43:19.536Z,91.96
2023-02-19T15:45:59.361Z,91.89
2023-02-19T15:48:43.348Z,92.21
2023-02-19T15:51:22.431Z,92.40
2023-02-19T15:53:58.400Z,92.20
2023-02-19T15:56:32.671Z,92.19
2023-02-19T15:59:09.859Z,92.14
2023-02-19T16:01:44.996Z,92.23
2023-02-19T16:04:33.771Z,91.92
2023-02-19T16:07:26.458Z,92.38
2023-02-19T16:10:19.238Z,92.23
2023-02-19T16:12:59.450Z,92.23
2023-02-19T16:15:31.450Z,91.93
2023-02-19T16:18:03.034Z,92.17
2023-02-19T16:20:37.948Z,92.21
2023-02-19T16:23:15.663Z,92.27
2023-02-19T16:25:48.556Z,92.49
2023-02-19T16:28:24.929Z,92.50
2023-02-19T16:31:00.424Z,92.63
2023-02-19T16:33:40.075Z,92.49
2023-02-19T16:36:28.202Z,92.42
2023-02-19T16:39:18.750Z,92.62
2023-02-19T16:42:20.129Z,92.63
2023-02-19T16:44:51.377Z,92.31
2023-02-19T16:47:35.931Z,92.28
2023-02-19T16:50:14.588Z,92.20
2023-02-19T16:52:56.921Z,92.61
2023-02-19T16:58:24.378Z,92.40
2023-02-19T17:01:14.833Z,92.44
2023-02-19T17:03:48.272Z,92.27
2023-02-19T17:06:20.238Z,92.42
2023-02-19T17:08:53.555Z,92.36
2023-02-19T17:11:25.413Z,92.12
2023-02-19T17:13:57.131Z,92.41
2023-02-19T17:16:35.482Z,91.96
2023-02-19T17:19:08.787Z,92.21
2023-02-19T17:21:40.987Z,92.14
2023-02-19T17:24:18.598Z,92.17
2023-02-19T17:26:49.166Z,92.07
2023-02-19T17:29:20.999Z,92.34
2023-02-19T17:31:52.691Z,92.12
2023-02-19T17:34:23.966Z,92.33
2023-02-19T17:36:54.781Z,92.16
2023-02-19T17:39:27.943Z,91.98
2023-02-19T17:42:01.078Z,92.04
2023-02-19T17:44:38.129Z,92.07
2023-02-19T17:47:09.472Z,92.03
2023-02-19T17:49:43.640Z,92.03
2023-02-19T17:52:17.968Z,92.07
2023-02-19T17:54:50.032Z,91.84
2023-02-19T17:57:20.592Z,91.90
2023-02-19T17:59:51.023Z,92.01
2023-02-19T18:02:21.462Z,92.02
2023-02-19T18:04:52.321Z,92.13
2023-02-19T18:07:25.618Z,91.96
2023-02-19T18:09:58.788Z,91.82
2023-02-19T18:12:29.452Z,91.95
2023-02-19T18:15:00.739Z,91.84
2023-02-19T18:17:32.234Z,92.13
2023-02-19T18:20:02.903Z,92.22
2023-02-19T18:22:35.748Z,92.20
2023-02-19T18:25:08.262Z,92.18
2023-02-19T18:27:39.080Z,92.56
2023-02-19T18:30:13.299Z,92.21
2023-02-19T18:32:43.805Z,92.17
2023-02-19T18:35:30.832Z,91.98
2023-02-19T18:38:01.411Z,91.90
2023-02-19T18:40:33.631Z,91.85
2023-02-19T18:43:04.127Z,91.71
2023-02-19T18:45:38.208Z,91.77
2023-02-19T18:48:12.278Z,91.85
2023-02-19T18:50:45.747Z,91.71
2023-02-19T18:53:16.452Z,91.57
2023-02-19T18:55:49.159Z,91.39
2023-02-19T18:58:23.991Z,91.15
2023-02-19T19:01:00.268Z,90.95
2023-02-19T19:03:35.783Z,90.74
2023-02-19T19:06:08.562Z,90.44
2023-02-19T19:08:41.756Z,90.21
2023-02-19T19:11:17.612Z,89.68
2023-02-19T19:13:49.567Z,89.36
2023-02-19T19:16:20.113Z,88.86
2023-02-19T19:18:51.946Z,88.99
2023-02-19T19:21:23.985Z,88.91
2023-02-19T19:23:55.207Z,89.17
2023-02-19T19:26:30.263Z,89.09
2023-02-19T19:29:00.900Z,89.44
2023-02-19T19:31:38.405Z,89.82
2023-02-19T19:34:09.088Z,89.92
2023-02-19T19:36:39.801Z,89.69
2023-02-19T19:39:10.667Z,89.58
2023-02-19T19:41:42.863Z,89.53
2023-02-19T19:44:13.894Z,89.49
2023-02-19T19:46:47.908Z,88.84
2023-02-19T19:49:21.269Z,88.76
2023-02-19T19:51:53.799Z,88.69
2023-02-19T19:54:31.438Z,88.45
2023-02-19T19:57:04.328Z,88.52
2023-02-19T19:59:34.805Z,88.67
2023-02-19T20:02:05.574Z,88.78
2023-02-19T20:04:36.090Z,88.91
2023-02-19T20:07:07.161Z,89.16
2023-02-19T20:09:37.651Z,89.12
2023-02-19T20:12:11.766Z,89.11
2023-02-19T20:14:42.230Z,89.30
2023-02-19T20:17:12.760Z,89.60
2023-02-19T20:19:43.283Z,89.65
2023-02-19T20:22:14.634Z,89.59
2023-02-19T20:24:45.118Z,89.68
2023-02-19T20:27:17.194Z,90.06
2023-02-19T20:29:47.704Z,89.96
2023-02-19T20:32:19.855Z,89.65
2023-02-19T20:34:51.180Z,89.60
2023-02-19T20:37:21.764Z,89.66
2023-02-19T20:39:52.301Z,89.57
2023-02-19T20:42:24.501Z,89.50
2023-02-19T20:44:55.039Z,89.54
2023-02-19T20:47:25.765Z,89.26
2023-02-19T20:49:56.230Z,89.27
2023-02-19T20:52:26.856Z,89.13
2023-02-19T20:54:58.596Z,88.69
2023-02-19T20:57:30.730Z,88.61
2023-02-19T21:00:03.500Z,88.46
2023-02-19T21:02:34.184Z,88.34
2023-02-19T21:05:04.808Z,88.18
2023-02-19T21:07:35.344Z,88.07
2023-02-19T21:10:06.008Z,88.08
2023-02-19T21:12:38.221Z,88.17
2023-02-19T21:15:09.335Z,88.03
2023-02-19T21:17:39.867Z,87.85
2023-02-19T21:20:11.604Z,87.83
2023-02-19T21:22:42.126Z,87.62
2023-02-19T21:25:13.075Z,87.71
2023-02-19T21:27:45.228Z,87.49
2023-02-19T21:30:16.153Z,87.11
2023-02-19T21:32:46.681Z,87.06
2023-02-19T21:35:17.770Z,86.80
2023-02-19T21:37:48.269Z,86.77
2023-02-19T21:40:18.900Z,86.73
2023-02-19T21:42:50.928Z,86.89
2023-02-19T21:45:21.497Z,86.59
2023-02-19T21:47:53.122Z,86.83
2023-02-19T21:50:23.910Z,86.76
2023-02-19T21:52:54.491Z,86.79
2023-02-19T21:55:25.118Z,86.59
2023-02-19T21:57:58.144Z,86.35
2023-02-19T22:00:28.628Z,86.11
2023-02-19T22:02:59.220Z,86.16
2023-02-19T22:05:29.827Z,86.27
2023-02-19T22:08:00.958Z,86.09
2023-02-19T22:10:32.346Z,85.88
2023-02-19T22:13:04.496Z,85.80
2023-02-19T22:15:35.375Z,85.53
2023-02-19T22:18:06.482Z,85.56
2023-02-19T22:20:39.325Z,85.63
2023-02-19T22:23:12.473Z,85.21
2023-02-19T22:25:42.980Z,84.99
2023-02-19T22:28:15.252Z,85.08
2023-02-19T22:30:45.854Z,84.75
2023-02-19T22:33:16.363Z,84.40
2023-02-19T22:35:46.873Z,84.16
2023-02-19T22:38:17.415Z,83.83
2023-02-19T22:40:48.066Z,83.62
2023-02-19T22:43:22.749Z,83.45
2023-02-19T22:45:53.209Z,83.16
2023-02-19T22:48:30.159Z,82.79
2023-02-19T22:51:01.863Z,82.03
2023-02-19T22:53:32.596Z,81.85
2023-02-19T22:56:03.117Z,81.35
2023-02-19T22:58:35.307Z,81.40
2023-02-19T23:01:05.896Z,81.47
2023-02-19T23:03:36.411Z,81.92
2023-02-19T23:06:07.745Z,82.17
2023-02-19T23:08:38.238Z,82.53
2023-02-19T23:11:08.717Z,82.19
2023-02-19T23:13:40.986Z,81.39
2023-02-19T23:16:12.109Z,81.01
2023-02-19T23:18:42.882Z,80.09
2023-02-19T23:21:13.698Z,79.83
2023-02-19T23:23:45.242Z,79.71
2023-02-19T23:26:17.145Z,79.34
2023-02-19T23:28:49.726Z,78.98
2023-02-19T23:31:20.927Z,78.82
2023-02-19T23:33:51.673Z,79.11
2023-02-19T23:36:24.624Z,78.63
2023-02-19T23:38:55.201Z,79.51
2023-02-19T23:41:25.725Z,79.21
2023-02-19T23:43:57.880Z,79.27
2023-02-19T23:46:28.628Z,78.92
2023-02-19T23:48:59.184Z,77.96
2023-02-19T23:51:29.700Z,77.33
2023-02-19T23:54:00.135Z,77.13
2023-02-19T23:56:32.128Z,76.37
2023-02-19T23:59:04.797Z,76.37
